Lamott, Pennsylvania
Current Conditions -  °F | °C
As of 6:54 PM on Saturday 20 Dec 2014 (Local Time) from KPNE Reporting Station
Overcast Overcast  
Wind Chill: 35°   Ceiling: 3100
Heat Index: 35°   Visibility: 10mi
Dew Point: 20°   Wind: 0mph
Humidity: 54%   Direction: NA
Pressure: 30.31"   Gusts: NA
Location:  40.0732°N, 75.1248°W
Report Text: KPNE 202354Z AUTO 00000KT 10SM OVC031 02/M07 A3031 RMK AO2 SLP263 T00171067 10022 20011 51009 TSNO
Loading
Personal Weather Stations






























Interactive Weather Map New forecast layout! Learn more

10-Day Weather Forecast

Advertisements
Track Severe Weather on mobile